createdAt,value
2022-08-05T00:00:08.544Z,67.99
2022-08-05T00:02:38.034Z,68.51
2022-08-05T00:06:02.039Z,68.38
2022-08-05T00:08:00.047Z,68.62
2022-08-05T00:10:27.997Z,67.53
2022-08-05T00:12:56.478Z,66.05
2022-08-05T00:15:55.174Z,65.87
2022-08-05T00:18:21.815Z,67.73
2022-08-05T00:20:50.525Z,68.46
2022-08-05T00:23:17.624Z,69.44
2022-08-05T00:26:05.504Z,69.70
2022-08-05T00:28:32.910Z,70.17
2022-08-05T00:31:04.528Z,70.49
2022-08-05T00:34:54.017Z,70.25
2022-08-05T00:37:11.239Z,70.63
2022-08-05T00:39:05.853Z,72.46
2022-08-05T00:41:52.128Z,72.85
2022-08-05T00:44:23.243Z,70.24
2022-08-05T00:47:02.969Z,70.27
2022-08-05T00:49:51.002Z,69.67
2022-08-05T00:52:18.897Z,70.68
2022-08-05T00:54:56.142Z,71.10
2022-08-05T00:57:25.394Z,72.06
2022-08-05T00:59:58.635Z,70.35
2022-08-05T01:02:25.340Z,69.87
2022-08-05T01:04:52.018Z,71.32
2022-08-05T01:07:18.807Z,71.31
2022-08-05T01:09:45.743Z,71.31
2022-08-05T01:12:23.788Z,71.00
2022-08-05T01:15:04.061Z,72.30
2022-08-05T01:17:53.811Z,72.47
2022-08-05T01:21:13.030Z,72.62
2022-08-05T01:23:58.031Z,73.28
2022-08-05T01:27:15.021Z,73.54
2022-08-05T01:29:50.049Z,73.07
2022-08-05T01:32:22.627Z,72.97
2022-08-05T01:34:57.420Z,72.33
2022-08-05T01:37:30.427Z,71.26
2022-08-05T01:40:01.191Z,72.15
2022-08-05T01:42:31.404Z,72.77
2022-08-05T01:45:02.057Z,72.36
2022-08-05T01:47:39.353Z,72.19
2022-08-05T01:50:15.139Z,71.22
2022-08-05T01:52:49.968Z,70.88
2022-08-05T01:55:20.320Z,70.24
2022-08-05T01:58:09.366Z,69.69
2022-08-05T02:00:38.677Z,70.24
2022-08-05T02:03:24.007Z,69.74
2022-08-05T02:05:59.912Z,68.17
2022-08-05T02:08:29.668Z,67.46
2022-08-05T02:11:12.982Z,67.22
2022-08-05T02:14:12.405Z,66.63
2022-08-05T02:16:52.252Z,66.20
2022-08-05T02:19:34.527Z,66.27
2022-08-05T02:22:10.337Z,67.13
2022-08-05T02:25:00.095Z,66.16
2022-08-05T02:27:29.718Z,66.18
2022-08-05T02:30:16.875Z,66.44
2022-08-05T02:32:48.148Z,67.12
2022-08-05T02:35:27.831Z,67.46
2022-08-05T02:37:56.886Z,67.70
2022-08-05T02:40:27.661Z,66.52
2022-08-05T02:42:56.764Z,67.36
2022-08-05T02:45:26.561Z,66.86
2022-08-05T02:48:07.476Z,67.14
2022-08-05T02:50:43.881Z,67.65
2022-08-05T02:53:18.963Z,67.87
2022-08-05T02:55:59.500Z,68.90
2022-08-05T02:58:28.945Z,68.84
2022-08-05T03:00:59.059Z,68.82
2022-08-05T03:03:34.180Z,68.48
2022-08-05T03:06:55.390Z,69.26
2022-08-05T03:09:03.714Z,69.67
2022-08-05T03:11:55.743Z,69.73
2022-08-05T03:14:17.637Z,68.87
2022-08-05T03:16:44.263Z,68.87
2022-08-05T03:19:16.941Z,69.33
2022-08-05T03:21:57.557Z,69.97
2022-08-05T03:24:29.297Z,68.85
2022-08-05T03:26:59.264Z,68.73
2022-08-05T03:29:44.765Z,70.01
2022-08-05T03:32:15.490Z,69.45
2022-08-05T03:34:50.755Z,70.58
2022-08-05T03:37:19.643Z,70.74
2022-08-05T03:39:58.812Z,71.05
2022-08-05T03:42:27.079Z,70.96
2022-08-05T03:44:55.706Z,71.52
2022-08-05T03:47:24.132Z,71.42
2022-08-05T03:49:52.396Z,70.87
2022-08-05T03:52:50.623Z,70.85
2022-08-05T03:56:09.390Z,71.71
2022-08-05T03:58:18.028Z,70.93
2022-08-05T04:00:46.453Z,71.59
2022-08-05T04:03:28.905Z,72.32
2022-08-05T04:05:59.279Z,71.28
2022-08-05T04:08:34.800Z,72.06
2022-08-05T04:11:06.096Z,71.79
2022-08-05T04:13:50.336Z,71.88
2022-08-05T04:16:25.336Z,72.87
2022-08-05T04:18:58.756Z,71.76
2022-08-05T04:22:08.092Z,72.24
2022-08-05T04:24:19.119Z,70.67
2022-08-05T04:26:49.341Z,70.09
2022-08-05T04:29:16.011Z,70.37
2022-08-05T04:31:42.923Z,68.70
2022-08-05T04:34:31.247Z,65.52
2022-08-05T04:36:57.064Z,65.33
2022-08-05T04:39:23.995Z,64.62
2022-08-05T04:41:51.480Z,65.32
2022-08-05T04:44:21.354Z,65.87
2022-08-05T04:46:57.380Z,63.89
2022-08-05T04:49:39.134Z,62.56
2022-08-05T04:52:12.393Z,63.04
2022-08-05T04:54:39.122Z,62.75
2022-08-05T04:57:05.847Z,60.90
2022-08-05T04:59:38.528Z,61.22
2022-08-05T05:02:41.491Z,61.28
2022-08-05T05:05:01.707Z,60.86
2022-08-05T05:07:29.277Z,60.33
2022-08-05T05:09:56.724Z,60.91
2022-08-05T05:12:24.412Z,60.77
2022-08-05T05:14:54.320Z,61.04
2022-08-05T05:17:24.167Z,60.33
2022-08-05T05:19:56.464Z,57.63
2022-08-05T05:22:26.389Z,58.37
2022-08-05T05:24:58.723Z,58.29
2022-08-05T05:27:44.137Z,56.76
2022-08-05T05:30:30.690Z,54.98
2022-08-05T05:33:00.423Z,56.98
2022-08-05T05:35:34.117Z,55.85
2022-08-05T05:38:03.440Z,55.17
2022-08-05T05:40:33.352Z,54.28
2022-08-05T05:43:02.169Z,51.70
2022-08-05T05:45:29.598Z,51.28
2022-08-05T05:48:06.034Z,49.32
2022-08-05T05:50:43.903Z,46.15
2022-08-05T05:53:21.045Z,47.37
2022-08-05T05:55:51.637Z,44.63
2022-08-05T05:58:31.926Z,44.72
2022-08-05T06:01:02.493Z,44.44
2022-08-05T06:04:01.214Z,43.98
2022-08-05T06:06:30.774Z,38.62
2022-08-05T06:08:59.368Z,43.34
2022-08-05T06:11:26.205Z,38.74
2022-08-05T06:13:56.334Z,44.93
2022-08-05T06:16:30.167Z,40.03
2022-08-05T06:19:01.160Z,41.37
2022-08-05T06:21:36.855Z,38.60
2022-08-05T06:24:12.193Z,38.86
2022-08-05T06:26:52.085Z,39.59
2022-08-05T06:29:49.502Z,42.08
2022-08-05T06:32:21.065Z,39.31
2022-08-05T06:34:58.367Z,37.58
2022-08-05T06:37:55.881Z,40.81
2022-08-05T06:40:18.512Z,38.97
2022-08-05T06:42:52.092Z,42.08
2022-08-05T06:45:21.165Z,38.29
2022-08-05T06:48:44.119Z,37.94
2022-08-05T06:50:53.082Z,38.73
2022-08-05T06:53:22.514Z,38.61
2022-08-05T06:55:54.989Z,38.49
2022-08-05T06:58:35.368Z,39.02
2022-08-05T07:01:05.136Z,39.14
2022-08-05T07:03:33.316Z,36.51
2022-08-05T07:06:06.256Z,36.81
2022-08-05T07:08:47.331Z,36.74
2022-08-05T07:11:22.460Z,34.57
2022-08-05T07:14:20.298Z,37.13
2022-08-05T07:18:00.373Z,36.68
2022-08-05T07:22:28.481Z,35.18
2022-08-05T07:25:22.603Z,34.97
2022-08-05T07:27:58.023Z,35.47
2022-08-05T07:30:34.178Z,34.99
2022-08-05T07:33:09.498Z,35.79
2022-08-05T07:36:02.517Z,35.73
2022-08-05T07:38:34.054Z,34.76
2022-08-05T07:41:35.297Z,34.61
2022-08-05T07:44:05.213Z,34.32
2022-08-05T07:46:33.778Z,35.01
2022-08-05T07:49:06.014Z,33.52
2022-08-05T07:51:40.578Z,34.62
2022-08-05T07:54:09.650Z,33.67
2022-08-05T07:57:02.876Z,34.74
2022-08-05T07:59:30.965Z,34.54
2022-08-05T08:02:07.251Z,33.80
2022-08-05T08:04:42.195Z,34.02
2022-08-05T08:07:11.617Z,33.68
2022-08-05T08:09:38.601Z,33.59
2022-08-05T08:12:11.476Z,32.65
2022-08-05T08:14:47.138Z,33.82
2022-08-05T08:17:16.262Z,33.56
2022-08-05T08:20:22.499Z,35.90
2022-08-05T08:22:32.332Z,34.46
2022-08-05T08:25:02.899Z,34.27
2022-08-05T08:27:35.665Z,38.58
2022-08-05T08:30:19.617Z,34.57
2022-08-05T08:32:57.147Z,33.96
2022-08-05T08:35:26.540Z,34.09
2022-08-05T08:37:56.456Z,34.67
2022-08-05T08:40:24.134Z,34.07
2022-08-05T08:42:53.377Z,32.37
2022-08-05T08:45:27.214Z,32.07
2022-08-05T08:48:12.545Z,32.00
2022-08-05T08:51:04.209Z,32.14
2022-08-05T08:53:44.359Z,31.57
2022-08-05T08:56:11.975Z,31.56
2022-08-05T08:58:44.409Z,31.68
2022-08-05T09:01:18.071Z,34.36
2022-08-05T09:03:54.245Z,31.15
2022-08-05T09:06:28.163Z,29.81
2022-08-05T09:08:59.127Z,30.38
2022-08-05T09:11:53.013Z,30.15
2022-08-05T09:14:56.476Z,28.98
2022-08-05T09:17:05.372Z,29.94
2022-08-05T09:20:01.571Z,30.30
2022-08-05T09:22:31.619Z,31.25
2022-08-05T09:25:13.895Z,30.42
2022-08-05T09:28:04.384Z,31.39
2022-08-05T09:30:33.339Z,29.99
2022-08-05T09:33:02.417Z,31.38
2022-08-05T09:35:31.510Z,29.76
2022-08-05T09:38:17.978Z,30.06
2022-08-05T09:40:52.170Z,30.07
2022-08-05T09:43:40.514Z,30.48
2022-08-05T09:46:28.080Z,30.01
2022-08-05T09:49:08.032Z,30.51
2022-08-05T09:51:43.236Z,29.76
2022-08-05T09:54:11.515Z,29.92
2022-08-05T09:56:39.627Z,29.55
2022-08-05T09:59:09.167Z,30.46
2022-08-05T10:01:45.872Z,30.78
2022-08-05T10:04:16.038Z,30.58
2022-08-05T10:06:59.602Z,29.79
2022-08-05T10:09:29.807Z,30.66
2022-08-05T10:12:18.899Z,28.16
2022-08-05T10:15:20.994Z,30.59
2022-08-05T10:18:07.066Z,26.94
2022-08-05T10:20:35.932Z,25.96
2022-08-05T10:23:02.639Z,26.23
2022-08-05T10:25:30.394Z,27.38
2022-08-05T10:28:13.878Z,27.83
2022-08-05T10:32:48.444Z,27.22
2022-08-05T10:33:35.335Z,27.94
2022-08-05T10:36:04.621Z,28.73
2022-08-05T10:38:33.438Z,29.19
2022-08-05T10:41:12.355Z,29.39
2022-08-05T10:44:03.788Z,30.96
2022-08-05T10:46:53.845Z,28.76
2022-08-05T10:49:27.405Z,29.06
2022-08-05T10:52:02.491Z,27.88
2022-08-05T10:54:56.970Z,28.34
2022-08-05T10:57:30.825Z,28.71
2022-08-05T11:00:20.773Z,27.89
2022-08-05T11:03:23.162Z,30.41
2022-08-05T11:06:15.513Z,28.12
2022-08-05T11:09:13.013Z,26.62
2022-08-05T11:11:53.290Z,26.18
2022-08-05T11:15:01.406Z,26.45
2022-08-05T11:18:07.392Z,27.23
2022-08-05T11:20:41.441Z,26.24
2022-08-05T11:23:56.905Z,26.54
2022-08-05T11:26:28.953Z,27.86
2022-08-05T11:29:12.538Z,27.16
2022-08-05T11:31:58.579Z,26.75
2022-08-05T11:34:38.829Z,28.23
2022-08-05T11:37:55.129Z,28.67
2022-08-05T11:39:55.442Z,27.29
2022-08-05T11:42:28.356Z,28.49
2022-08-05T11:45:03.455Z,27.37
2022-08-05T11:47:49.412Z,27.22
2022-08-05T11:50:18.081Z,29.51
2022-08-05T11:52:46.177Z,29.32
2022-08-05T11:55:16.473Z,28.50
2022-08-05T11:58:10.615Z,27.05
2022-08-05T12:00:38.515Z,26.16
2022-08-05T12:03:31.766Z,26.37
2022-08-05T12:06:02.108Z,27.24
2022-08-05T12:08:31.673Z,26.64
2022-08-05T12:11:05.719Z,28.20
2022-08-05T12:13:48.659Z,27.11
2022-08-05T12:16:19.030Z,26.55
2022-08-05T12:18:52.446Z,27.63
2022-08-05T12:21:30.662Z,27.94
2022-08-05T12:24:00.024Z,27.54
2022-08-05T12:26:38.104Z,28.16
2022-08-05T12:29:09.669Z,27.44
2022-08-05T12:31:46.066Z,25.89
2022-08-05T12:34:20.441Z,26.73
2022-08-05T12:36:49.923Z,25.46
2022-08-05T12:39:17.784Z,25.80
2022-08-05T12:41:45.396Z,25.87
2022-08-05T12:44:32.676Z,26.54
2022-08-05T12:47:02.044Z,27.75
2022-08-05T12:50:03.538Z,26.94
2022-08-05T12:52:38.620Z,29.12
2022-08-05T12:55:25.583Z,27.75
2022-08-05T12:58:49.099Z,27.31
2022-08-05T13:02:01.240Z,28.20
2022-08-05T13:03:41.497Z,27.50
2022-08-05T13:06:14.012Z,27.87
2022-08-05T13:08:52.283Z,27.61
2022-08-05T13:12:01.326Z,27.91
2022-08-05T13:14:24.724Z,27.82
2022-08-05T13:16:56.883Z,27.85
2022-08-05T13:19:51.668Z,25.79
2022-08-05T13:22:28.557Z,25.38
2022-08-05T13:25:05.212Z,25.78
2022-08-05T13:27:41.989Z,26.85
2022-08-05T13:30:32.879Z,25.57
2022-08-05T13:33:02.144Z,25.40
2022-08-05T13:35:43.282Z,26.14
2022-08-05T13:38:20.552Z,25.51
2022-08-05T13:40:58.975Z,26.02
2022-08-05T13:43:44.792Z,26.98
2022-08-05T13:46:14.293Z,26.26
2022-08-05T13:48:58.261Z,25.73
2022-08-05T13:51:36.582Z,27.81
2022-08-05T13:54:12.594Z,27.32
2022-08-05T13:56:45.497Z,26.15
2022-08-05T13:59:21.071Z,27.90
2022-08-05T14:01:57.939Z,27.58
2022-08-05T14:04:49.431Z,28.40
2022-08-05T14:07:26.283Z,27.42
2022-08-05T14:10:18.973Z,27.18
2022-08-05T14:12:55.160Z,28.30
2022-08-05T14:16:04.464Z,27.61
2022-08-05T14:18:14.821Z,28.69
2022-08-05T14:20:47.686Z,27.84
2022-08-05T14:23:23.839Z,28.22
2022-08-05T14:25:58.128Z,27.91
2022-08-05T14:28:27.800Z,27.91
2022-08-05T14:30:56.150Z,27.47
2022-08-05T14:33:23.828Z,30.07
2022-08-05T14:35:52.303Z,30.12
2022-08-05T14:38:31.935Z,30.44
2022-08-05T14:41:01.122Z,31.41
2022-08-05T14:43:57.568Z,30.92
2022-08-05T14:46:14.550Z,31.02
2022-08-05T14:48:41.506Z,32.37
2022-08-05T14:51:15.377Z,32.14
2022-08-05T14:53:44.639Z,32.34
2022-08-05T14:56:12.059Z,31.70
2022-08-05T14:58:47.883Z,31.67
2022-08-05T15:01:37.111Z,30.43
2022-08-05T15:04:11.512Z,30.26
2022-08-05T15:06:39.075Z,30.86
2022-08-05T15:09:07.548Z,31.16
2022-08-05T15:11:51.240Z,31.27
2022-08-05T15:14:35.115Z,30.78
2022-08-05T15:17:09.948Z,31.95
2022-08-05T15:19:56.018Z,30.98
2022-08-05T15:22:27.182Z,31.86
2022-08-05T15:24:55.193Z,33.01
2022-08-05T15:27:21.927Z,32.00
2022-08-05T15:29:54.259Z,31.94
2022-08-05T15:32:27.485Z,32.22
2022-08-05T15:34:56.951Z,31.06
2022-08-05T15:38:34.667Z,31.73
2022-08-05T15:41:00.728Z,32.15
2022-08-05T15:43:09.223Z,31.88
2022-08-05T15:45:45.962Z,31.63
2022-08-05T15:48:14.249Z,31.38
2022-08-05T15:50:43.849Z,30.96
2022-08-05T15:53:13.066Z,30.58
2022-08-05T15:56:02.062Z,31.29
2022-08-05T15:58:29.215Z,31.99
2022-08-05T16:01:04.499Z,32.63
2022-08-05T16:03:43.198Z,33.32
2022-08-05T16:06:11.454Z,34.23
2022-08-05T16:08:39.929Z,33.07
2022-08-05T16:11:08.121Z,32.99
2022-08-05T16:13:35.346Z,33.81
2022-08-05T16:16:03.921Z,33.66
2022-08-05T16:18:35.053Z,33.73
2022-08-05T16:21:18.754Z,33.73
2022-08-05T16:23:53.822Z,33.80
2022-08-05T16:26:26.522Z,33.94
2022-08-05T16:28:54.772Z,34.62
2022-08-05T16:31:22.036Z,33.27
2022-08-05T16:33:49.429Z,33.42
2022-08-05T16:36:20.372Z,33.47
2022-08-05T16:38:54.873Z,33.85
2022-08-05T16:42:14.483Z,33.54
2022-08-05T16:44:11.658Z,33.76
2022-08-05T16:46:41.064Z,34.38
2022-08-05T16:49:09.958Z,34.29
2022-08-05T16:51:42.669Z,35.03
2022-08-05T16:54:23.968Z,35.05
2022-08-05T16:56:55.391Z,34.71
2022-08-05T16:59:22.942Z,35.05
2022-08-05T17:01:54.329Z,35.60
2022-08-05T17:04:27.142Z,35.37
2022-08-05T17:07:01.041Z,36.28
2022-08-05T17:09:56.087Z,36.01
2022-08-05T17:12:22.560Z,37.53
2022-08-05T17:15:05.795Z,37.40
2022-08-05T17:17:42.345Z,37.55
2022-08-05T17:20:14.913Z,38.30
2022-08-05T17:22:43.327Z,37.76
2022-08-05T17:25:33.487Z,39.10
2022-08-05T17:27:58.548Z,38.01
2022-08-05T17:30:28.382Z,37.94
2022-08-05T17:32:55.713Z,39.10
2022-08-05T17:35:22.548Z,41.14
2022-08-05T17:37:49.575Z,45.52
2022-08-05T17:40:18.388Z,44.31
2022-08-05T17:42:50.689Z,42.80
2022-08-05T17:45:22.787Z,41.90
2022-08-05T17:47:55.684Z,44.01
2022-08-05T17:50:28.090Z,43.60
2022-08-05T17:53:02.426Z,42.89
2022-08-05T17:55:37.523Z,43.57
2022-08-05T17:58:14.444Z,42.04
2022-08-05T18:00:47.727Z,43.10
2022-08-05T18:03:59.518Z,44.27
2022-08-05T18:06:12.286Z,43.84
2022-08-05T18:08:44.603Z,45.81
2022-08-05T18:11:23.913Z,44.46
2022-08-05T18:13:56.276Z,45.20
2022-08-05T18:16:23.362Z,44.81
2022-08-05T18:18:50.331Z,45.19
2022-08-05T18:21:21.330Z,46.46
2022-08-05T18:23:53.743Z,47.64
2022-08-05T18:26:22.268Z,50.08
2022-08-05T18:28:56.676Z,49.29
2022-08-05T18:31:24.113Z,49.63
2022-08-05T18:33:51.708Z,49.48
2022-08-05T18:36:19.163Z,48.11
2022-08-05T18:38:46.449Z,46.44
2022-08-05T18:41:56.411Z,45.87
2022-08-05T18:44:06.523Z,47.18
2022-08-05T18:46:34.734Z,47.41
2022-08-05T18:49:21.219Z,47.51
2022-08-05T18:52:08.940Z,47.66
2022-08-05T18:54:41.433Z,47.96
2022-08-05T18:57:15.481Z,48.10
2022-08-05T19:00:02.954Z,47.56
2022-08-05T19:02:29.117Z,48.91
2022-08-05T19:05:02.586Z,47.21
2022-08-05T19:07:48.234Z,48.05
2022-08-05T19:10:19.162Z,47.06
2022-08-05T19:12:57.802Z,46.89
2022-08-05T19:15:59.165Z,46.87
2022-08-05T19:18:21.775Z,45.30
2022-08-05T19:20:53.818Z,45.31
2022-08-05T19:24:04.048Z,44.40
2022-08-05T19:26:09.548Z,43.39
2022-08-05T19:28:42.299Z,44.38
2022-08-05T19:31:13.606Z,44.26
2022-08-05T19:33:48.609Z,45.08
2022-08-05T19:36:23.414Z,45.38
2022-08-05T19:38:50.116Z,45.53
2022-08-05T19:41:16.935Z,46.04
2022-08-05T19:44:07.073Z,45.20
2022-08-05T19:46:39.320Z,44.94
2022-08-05T19:49:07.644Z,45.62
2022-08-05T19:52:04.841Z,46.50
2022-08-05T19:54:31.272Z,46.93
2022-08-05T19:57:09.899Z,47.25
2022-08-05T19:59:56.132Z,47.13
2022-08-05T20:02:27.048Z,48.08
2022-08-05T20:04:58.692Z,48.48
2022-08-05T20:07:46.886Z,50.04
2022-08-05T20:10:13.997Z,50.60
2022-08-05T20:12:48.384Z,51.16
2022-08-05T20:15:23.165Z,51.29
2022-08-05T20:18:10.398Z,51.97
2022-08-05T20:20:56.724Z,52.25
2022-08-05T20:23:40.573Z,52.92
2022-08-05T20:26:17.206Z,52.87
2022-08-05T20:28:55.586Z,53.59
2022-08-05T20:31:37.012Z,53.89
2022-08-05T20:34:11.738Z,54.77
2022-08-05T20:36:39.296Z,55.62
2022-08-05T20:39:13.003Z,55.57
2022-08-05T20:41:44.061Z,55.75
2022-08-05T20:44:29.532Z,56.61
2022-08-05T20:47:03.459Z,56.29
2022-08-05T20:49:33.288Z,56.70
2022-08-05T20:52:07.092Z,57.16
2022-08-05T20:54:55.391Z,56.89
2022-08-05T20:57:24.801Z,56.83
2022-08-05T21:00:21.038Z,56.68
2022-08-05T21:03:01.544Z,56.71
2022-08-05T21:05:47.791Z,57.58
2022-08-05T21:08:15.884Z,57.97
2022-08-05T21:10:48.445Z,57.41
2022-08-05T21:13:25.956Z,57.88
2022-08-05T21:16:03.613Z,57.29
2022-08-05T21:18:30.564Z,57.89
2022-08-05T21:20:57.992Z,57.96
2022-08-05T21:23:25.161Z,58.69
2022-08-05T21:25:55.488Z,58.90
2022-08-05T21:28:23.946Z,59.58
2022-08-05T21:30:50.957Z,60.20
2022-08-05T21:33:22.424Z,60.63
2022-08-05T21:35:58.661Z,60.42
2022-08-05T21:38:26.788Z,60.77
2022-08-05T21:40:53.958Z,60.81
2022-08-05T21:43:24.698Z,61.65
2022-08-05T21:45:57.811Z,61.85
2022-08-05T21:48:28.047Z,61.68
2022-08-05T21:50:55.362Z,61.94
2022-08-05T21:53:24.844Z,62.45
2022-08-05T21:56:06.398Z,62.51
2022-08-05T21:58:42.279Z,62.84
2022-08-05T22:01:23.926Z,62.58
2022-08-05T22:03:52.379Z,63.27
2022-08-05T22:06:22.886Z,63.36
2022-08-05T22:08:52.040Z,63.77
2022-08-05T22:11:19.277Z,63.58
2022-08-05T22:14:31.451Z,64.35
2022-08-05T22:16:51.704Z,64.25
2022-08-05T22:19:57.414Z,64.75
2022-08-05T22:22:07.173Z,65.15
2022-08-05T22:24:55.791Z,65.11
2022-08-05T22:28:08.639Z,65.64
2022-08-05T22:30:35.273Z,65.62
2022-08-05T22:33:03.398Z,66.32
2022-08-05T22:35:31.119Z,65.92
2022-08-05T22:38:14.930Z,66.96
2022-08-05T22:40:41.904Z,66.68
2022-08-05T22:43:16.403Z,67.35
2022-08-05T22:46:12.070Z,67.33
2022-08-05T22:48:47.813Z,66.76
2022-08-05T22:51:16.132Z,66.79
2022-08-05T22:53:50.288Z,66.72
2022-08-05T22:56:17.887Z,67.15
2022-08-05T22:58:58.075Z,67.94
2022-08-05T23:02:04.553Z,67.90
2022-08-05T23:04:13.702Z,67.80
2022-08-05T23:06:41.234Z,68.69
2022-08-05T23:09:24.565Z,68.74
2022-08-05T23:11:54.869Z,68.34
2022-08-05T23:14:22.690Z,69.09
2022-08-05T23:17:18.691Z,68.69
2022-08-05T23:19:56.289Z,68.18
2022-08-05T23:22:27.202Z,68.79
2022-08-05T23:24:54.973Z,69.19
2022-08-05T23:27:22.666Z,68.96
2022-08-05T23:29:50.571Z,69.50
2022-08-05T23:32:17.546Z,69.99
2022-08-05T23:34:49.979Z,71.10
2022-08-05T23:37:17.956Z,71.11
2022-08-05T23:39:54.204Z,70.19
2022-08-05T23:42:28.970Z,70.07
2022-08-05T23:44:57.091Z,69.65
2022-08-05T23:47:25.064Z,69.83
2022-08-05T23:49:55.579Z,69.95
2022-08-05T23:52:26.568Z,70.23
2022-08-05T23:54:59.174Z,70.03
2022-08-05T23:57:28.258Z,70.54
